createdAt,value
2018-06-30T00:00:03.229Z,6.93
2018-06-30T00:02:31.603Z,6.43
2018-06-30T00:04:59.987Z,7.10
2018-06-30T00:07:28.335Z,7.80
2018-06-30T00:09:56.743Z,7.17
2018-06-30T00:12:25.152Z,7.90
2018-06-30T00:14:53.552Z,7.47
2018-06-30T00:17:21.923Z,6.80
2018-06-30T00:19:50.325Z,8.53
2018-06-30T00:22:18.746Z,7.50
2018-06-30T00:24:47.145Z,7.23
2018-06-30T00:27:20.905Z,7.50
2018-06-30T00:29:49.315Z,7.10
2018-06-30T00:32:17.683Z,6.30
2018-06-30T00:34:46.059Z,8.33
2018-06-30T00:37:14.427Z,8.10
2018-06-30T00:39:42.808Z,8.30
2018-06-30T00:42:11.160Z,7.50
2018-06-30T00:44:39.534Z,7.80
2018-06-30T00:47:07.892Z,7.70
2018-06-30T00:49:36.285Z,7.43
2018-06-30T00:52:04.692Z,8.27
2018-06-30T00:54:33.087Z,7.63
2018-06-30T00:57:01.483Z,8.40
2018-06-30T00:59:29.867Z,8.40
2018-06-30T01:01:58.247Z,7.30
2018-06-30T01:04:26.780Z,7.87
2018-06-30T01:06:55.328Z,7.80
2018-06-30T01:09:23.771Z,8.40
2018-06-30T01:11:52.243Z,8.73
2018-06-30T01:14:20.677Z,7.90
2018-06-30T01:16:49.067Z,7.80
2018-06-30T01:19:17.431Z,8.90
2018-06-30T01:21:46.024Z,8.73
2018-06-30T01:24:14.399Z,8.20
2018-06-30T01:26:42.791Z,9.23
2018-06-30T01:29:11.272Z,9.10
2018-06-30T01:31:39.662Z,9.40
2018-06-30T01:34:08.181Z,9.97
2018-06-30T01:36:36.575Z,8.57
2018-06-30T01:39:07.593Z,8.80
2018-06-30T01:41:35.994Z,9.90
2018-06-30T01:44:04.575Z,9.40
2018-06-30T01:46:32.981Z,9.90
2018-06-30T01:49:01.347Z,10.83
2018-06-30T01:51:29.755Z,10.07
2018-06-30T01:53:58.156Z,11.20
2018-06-30T01:56:26.548Z,10.00
2018-06-30T01:58:54.920Z,11.17
2018-06-30T02:01:23.340Z,9.67
2018-06-30T02:03:51.711Z,10.17
2018-06-30T02:06:20.143Z,9.90
2018-06-30T02:08:48.551Z,10.93
2018-06-30T02:11:16.963Z,10.43
2018-06-30T02:13:45.335Z,11.80
2018-06-30T02:16:13.755Z,10.70
2018-06-30T02:18:42.127Z,11.53
2018-06-30T02:21:10.535Z,11.97
2018-06-30T02:23:38.952Z,11.83
2018-06-30T02:26:07.355Z,12.07
2018-06-30T02:28:35.735Z,11.03
2018-06-30T02:31:04.105Z,11.87
2018-06-30T02:33:32.507Z,13.27
2018-06-30T02:36:00.916Z,12.10
2018-06-30T02:38:29.426Z,13.10
2018-06-30T02:40:57.840Z,12.30
2018-06-30T02:43:26.307Z,13.67
2018-06-30T02:45:54.700Z,12.97
2018-06-30T02:48:23.075Z,13.73
2018-06-30T02:50:51.467Z,11.87
2018-06-30T02:53:19.886Z,12.70
2018-06-30T02:55:48.265Z,13.60
2018-06-30T02:58:16.668Z,12.10
2018-06-30T03:00:46.095Z,14.00
2018-06-30T03:03:14.491Z,13.00
2018-06-30T03:05:42.859Z,13.90
2018-06-30T03:08:11.257Z,14.83
2018-06-30T03:10:39.660Z,13.17
2018-06-30T03:13:08.065Z,14.20
2018-06-30T03:15:36.463Z,13.80
2018-06-30T03:18:05.000Z,13.87
2018-06-30T03:20:33.353Z,14.73
2018-06-30T03:23:01.767Z,13.40
2018-06-30T03:25:30.159Z,12.43
2018-06-30T03:27:58.563Z,13.83
2018-06-30T03:30:26.936Z,15.00
2018-06-30T03:32:55.339Z,14.57
2018-06-30T03:35:23.735Z,14.53
2018-06-30T03:37:52.131Z,13.27
2018-06-30T03:40:20.559Z,13.07
2018-06-30T03:42:48.964Z,12.80
2018-06-30T03:45:17.331Z,13.27
2018-06-30T03:47:45.719Z,13.10
2018-06-30T03:50:14.107Z,15.27
2018-06-30T03:52:42.523Z,14.80
2018-06-30T03:55:10.936Z,15.37
2018-06-30T03:57:39.427Z,14.80
2018-06-30T04:00:08.035Z,15.30
2018-06-30T04:02:36.429Z,14.97
2018-06-30T04:05:04.828Z,16.20
2018-06-30T04:07:33.220Z,15.60
2018-06-30T04:10:01.600Z,15.80
2018-06-30T04:12:30.021Z,16.00
2018-06-30T04:14:58.448Z,14.47
2018-06-30T04:17:26.859Z,16.20
2018-06-30T04:19:55.263Z,16.50
2018-06-30T04:22:23.676Z,16.83
2018-06-30T04:24:52.083Z,15.27
2018-06-30T04:27:20.510Z,15.80
2018-06-30T04:29:48.932Z,14.20
2018-06-30T04:32:17.333Z,15.23
2018-06-30T04:34:45.745Z,15.17
2018-06-30T04:37:14.156Z,16.00
2018-06-30T04:39:42.587Z,16.70
2018-06-30T04:42:10.979Z,16.10
2018-06-30T04:44:39.420Z,14.20
2018-06-30T04:47:07.851Z,14.83
2018-06-30T04:49:36.283Z,14.40
2018-06-30T04:52:04.768Z,16.07
2018-06-30T04:54:33.219Z,16.03
2018-06-30T04:57:01.619Z,16.50
2018-06-30T04:59:30.046Z,16.13
2018-06-30T05:01:58.464Z,15.27
2018-06-30T05:04:26.903Z,16.17
2018-06-30T05:06:55.303Z,14.47
2018-06-30T05:09:23.711Z,14.50
2018-06-30T05:11:52.111Z,12.73
2018-06-30T05:14:20.543Z,13.10
2018-06-30T05:16:48.953Z,12.20
2018-06-30T05:19:17.355Z,11.20
2018-06-30T05:21:45.776Z,10.63
2018-06-30T05:24:14.196Z,10.67
2018-06-30T05:26:42.601Z,10.93
2018-06-30T05:29:11.011Z,10.90
2018-06-30T05:31:39.463Z,10.20
2018-06-30T05:34:07.880Z,9.70
2018-06-30T05:36:36.277Z,9.90
2018-06-30T05:39:06.940Z,8.70
2018-06-30T05:41:35.380Z,8.10
2018-06-30T05:44:04.110Z,8.13
2018-06-30T05:46:32.559Z,8.60
2018-06-30T05:49:01.170Z,8.83
2018-06-30T05:51:29.583Z,8.50
2018-06-30T05:53:58.005Z,8.03
2018-06-30T05:56:26.400Z,8.57
2018-06-30T05:58:55.061Z,8.10
2018-06-30T06:01:23.468Z,7.87
2018-06-30T06:03:51.887Z,7.00
2018-06-30T06:06:20.291Z,7.57
2018-06-30T06:08:48.712Z,6.10
2018-06-30T06:11:17.156Z,5.93
2018-06-30T06:13:45.703Z,6.65
2018-06-30T06:16:14.123Z,5.92
2018-06-30T06:18:42.561Z,6.10
2018-06-30T06:21:11.016Z,4.92
2018-06-30T06:23:39.391Z,5.20
2018-06-30T06:26:07.820Z,4.40
2018-06-30T06:28:36.240Z,4.60
2018-06-30T06:31:04.747Z,4.45
2018-06-30T06:33:33.151Z,4.80
2018-06-30T06:36:01.615Z,4.17
2018-06-30T06:38:30.047Z,4.10
2018-06-30T06:40:58.443Z,4.00
2018-06-30T06:43:26.523Z,3.80
2018-06-30T06:45:54.928Z,3.45
2018-06-30T06:48:23.303Z,3.27
2018-06-30T06:50:51.713Z,3.10
2018-06-30T06:53:20.132Z,3.37
2018-06-30T06:55:48.540Z,3.05
2018-06-30T06:58:16.951Z,3.00
2018-06-30T07:00:45.360Z,2.72
2018-06-30T07:03:13.944Z,2.40
2018-06-30T07:05:42.275Z,2.55
2018-06-30T07:08:10.847Z,2.10
2018-06-30T07:10:39.147Z,2.42
2018-06-30T07:13:07.553Z,1.95
2018-06-30T07:15:35.971Z,1.80
2018-06-30T07:18:04.483Z,2.05
2018-06-30T07:20:32.899Z,1.80
2018-06-30T07:23:01.291Z,1.87
2018-06-30T07:25:29.722Z,1.87
2018-06-30T07:27:58.108Z,1.65
2018-06-30T07:30:26.537Z,1.50
2018-06-30T07:32:54.948Z,1.70
2018-06-30T07:35:23.375Z,2.12
2018-06-30T07:37:51.835Z,1.95
2018-06-30T07:40:20.235Z,1.60
2018-06-30T07:42:48.666Z,1.70
2018-06-30T07:45:17.078Z,1.80
2018-06-30T07:47:45.509Z,1.55
2018-06-30T07:50:14.006Z,1.90
2018-06-30T07:52:42.379Z,1.70
2018-06-30T07:55:10.952Z,1.70
2018-06-30T07:57:39.325Z,1.45
2018-06-30T08:00:07.840Z,1.50
2018-06-30T08:02:36.263Z,1.50
2018-06-30T08:05:05.151Z,1.40
2018-06-30T08:07:33.625Z,1.50
2018-06-30T08:10:02.035Z,1.37
2018-06-30T08:12:30.447Z,1.40
2018-06-30T08:14:58.928Z,1.15
2018-06-30T08:17:27.351Z,1.35
2018-06-30T08:19:55.755Z,1.22
2018-06-30T08:22:24.251Z,1.52
2018-06-30T08:24:52.635Z,1.15
2018-06-30T08:27:21.109Z,1.20
2018-06-30T08:29:49.783Z,1.15
2018-06-30T08:32:18.187Z,1.20
2018-06-30T08:34:46.565Z,1.30
2018-06-30T08:37:14.978Z,1.10
2018-06-30T08:39:43.348Z,1.32
2018-06-30T08:42:11.764Z,1.40
2018-06-30T08:44:40.207Z,1.60
2018-06-30T08:47:08.590Z,1.57
2018-06-30T08:49:37.039Z,1.42
2018-06-30T08:52:05.439Z,1.30
2018-06-30T08:54:33.830Z,1.30
2018-06-30T08:57:02.382Z,1.25
2018-06-30T08:59:30.729Z,1.35
2018-06-30T09:01:59.154Z,1.20
2018-06-30T09:04:27.558Z,1.30
2018-06-30T09:06:56.064Z,1.50
2018-06-30T09:09:24.492Z,1.75
2018-06-30T09:11:52.944Z,1.50
2018-06-30T09:14:21.303Z,1.40
2018-06-30T09:16:49.720Z,1.47
2018-06-30T09:19:18.113Z,1.40
2018-06-30T09:21:46.530Z,1.45
2018-06-30T09:24:14.967Z,1.67
2018-06-30T09:26:43.368Z,1.40
2018-06-30T09:29:11.817Z,1.55
2018-06-30T09:31:40.259Z,1.57
2018-06-30T09:34:08.899Z,1.42
2018-06-30T09:36:37.307Z,1.30
2018-06-30T09:39:08.067Z,1.45
2018-06-30T09:41:36.491Z,1.35
2018-06-30T09:44:04.931Z,1.80
2018-06-30T09:46:33.383Z,2.27
2018-06-30T09:49:01.763Z,2.80
2018-06-30T09:51:30.152Z,3.00
2018-06-30T09:53:58.547Z,3.53
2018-06-30T09:56:26.923Z,3.60
2018-06-30T09:58:55.312Z,4.47
2018-06-30T10:01:23.704Z,4.27
2018-06-30T10:03:52.135Z,4.80
2018-06-30T10:06:20.523Z,5.13
2018-06-30T10:08:48.911Z,5.10
2018-06-30T10:11:17.307Z,5.77
2018-06-30T10:13:45.731Z,5.07
2018-06-30T10:16:14.280Z,5.50
2018-06-30T10:18:42.781Z,5.27
2018-06-30T10:21:11.249Z,4.43
2018-06-30T10:23:39.668Z,4.20
2018-06-30T10:26:08.163Z,5.30
2018-06-30T10:28:36.568Z,4.30
2018-06-30T10:31:04.940Z,4.27
2018-06-30T10:33:33.356Z,4.87
2018-06-30T10:36:01.757Z,5.53
2018-06-30T10:38:30.178Z,4.50
2018-06-30T10:40:58.579Z,5.47
2018-06-30T10:43:26.991Z,4.80
2018-06-30T10:45:55.415Z,4.60
2018-06-30T10:48:23.911Z,4.47
2018-06-30T10:50:52.284Z,4.40
2018-06-30T10:53:20.677Z,4.33
2018-06-30T10:55:49.176Z,4.13
2018-06-30T10:58:17.592Z,4.70
2018-06-30T11:00:45.991Z,4.37
2018-06-30T11:03:14.391Z,4.20
2018-06-30T11:05:42.794Z,5.23
2018-06-30T11:08:11.223Z,5.37
2018-06-30T11:10:39.703Z,4.60
2018-06-30T11:13:08.115Z,4.30
2018-06-30T11:15:36.563Z,4.30
2018-06-30T11:18:05.011Z,4.60
2018-06-30T11:20:33.538Z,4.60
2018-06-30T11:23:01.944Z,4.60
2018-06-30T11:25:30.381Z,4.87
2018-06-30T11:27:58.867Z,4.83
2018-06-30T11:30:27.303Z,5.47
2018-06-30T11:32:55.710Z,4.77
2018-06-30T11:35:24.155Z,5.10
2018-06-30T11:37:52.628Z,4.80
2018-06-30T11:40:21.032Z,4.13
2018-06-30T11:42:49.435Z,4.63
2018-06-30T11:45:17.855Z,4.67
2018-06-30T11:47:46.292Z,4.30
2018-06-30T11:50:14.393Z,4.30
2018-06-30T11:52:42.794Z,4.10
2018-06-30T11:55:11.328Z,3.77
2018-06-30T11:57:39.748Z,3.93
2018-06-30T12:00:08.844Z,4.90
2018-06-30T12:02:37.322Z,4.30
2018-06-30T12:05:06.713Z,4.30
2018-06-30T12:07:35.183Z,4.47
2018-06-30T12:10:03.780Z,4.20
2018-06-30T12:12:32.252Z,4.50
2018-06-30T12:15:00.678Z,4.10
2018-06-30T12:17:29.075Z,4.17
2018-06-30T12:19:57.531Z,3.60
2018-06-30T12:22:25.942Z,3.77
2018-06-30T12:24:54.437Z,4.00
2018-06-30T12:27:22.831Z,3.63
2018-06-30T12:29:51.268Z,3.70
2018-06-30T12:32:19.731Z,4.33
2018-06-30T12:34:48.117Z,4.40
2018-06-30T12:37:16.531Z,4.20
2018-06-30T12:39:44.947Z,3.70
2018-06-30T12:42:13.363Z,4.07
2018-06-30T12:44:41.794Z,4.53
2018-06-30T12:47:10.193Z,4.10
2018-06-30T12:49:38.635Z,4.40
2018-06-30T12:52:07.099Z,4.23
2018-06-30T12:54:36.013Z,3.70
2018-06-30T12:57:04.255Z,4.50
2018-06-30T12:59:32.699Z,3.87
2018-06-30T13:02:01.109Z,3.80
2018-06-30T13:04:29.547Z,3.57
2018-06-30T13:06:57.944Z,4.67
2018-06-30T13:09:26.372Z,3.30
2018-06-30T13:11:54.814Z,3.03
2018-06-30T13:14:23.244Z,3.20
2018-06-30T13:16:51.626Z,3.63
2018-06-30T13:19:20.184Z,3.67
2018-06-30T13:21:48.587Z,3.37
2018-06-30T13:24:16.961Z,3.83
2018-06-30T13:26:45.400Z,3.57
2018-06-30T13:29:13.815Z,3.70
2018-06-30T13:31:42.239Z,3.40
2018-06-30T13:34:10.711Z,4.30
2018-06-30T13:36:39.140Z,3.30
2018-06-30T13:39:13.502Z,3.50
2018-06-30T13:41:42.341Z,3.77
2018-06-30T13:44:10.979Z,3.77
2018-06-30T13:46:39.517Z,3.30
2018-06-30T13:49:08.191Z,3.00
2018-06-30T13:51:37.023Z,3.13
2018-06-30T13:54:05.849Z,3.30
2018-06-30T13:56:34.289Z,2.87
2018-06-30T13:59:02.776Z,3.00
2018-06-30T14:01:31.253Z,2.77
2018-06-30T14:03:59.703Z,3.00
2018-06-30T14:06:28.099Z,3.30
2018-06-30T14:08:56.575Z,3.23
2018-06-30T14:11:25.024Z,2.60
2018-06-30T14:13:53.483Z,3.33
2018-06-30T14:16:21.964Z,3.13
2018-06-30T14:18:50.437Z,3.07
2018-06-30T14:21:18.888Z,2.87
2018-06-30T14:23:47.279Z,3.20
2018-06-30T14:26:15.708Z,3.00
2018-06-30T14:28:44.136Z,3.50
2018-06-30T14:31:12.607Z,2.90
2018-06-30T14:33:41.044Z,2.50
2018-06-30T14:36:09.477Z,2.77
2018-06-30T14:38:37.912Z,3.10
2018-06-30T14:41:06.429Z,2.90
2018-06-30T14:43:34.863Z,2.80
2018-06-30T14:46:03.422Z,3.10
2018-06-30T14:48:31.828Z,2.90
2018-06-30T14:51:00.248Z,2.90
2018-06-30T14:53:28.680Z,2.73
2018-06-30T14:55:56.788Z,2.83
2018-06-30T14:58:25.207Z,2.90
2018-06-30T15:00:53.635Z,2.60
2018-06-30T15:03:22.080Z,2.53
2018-06-30T15:05:50.555Z,2.90
2018-06-30T15:08:18.952Z,2.63
2018-06-30T15:10:47.396Z,2.40
2018-06-30T15:13:15.885Z,2.57
2018-06-30T15:15:44.327Z,2.67
2018-06-30T15:18:12.839Z,2.60
2018-06-30T15:20:41.391Z,2.90
2018-06-30T15:23:09.917Z,2.20
2018-06-30T15:25:38.333Z,2.10
2018-06-30T15:28:06.849Z,2.50
2018-06-30T15:30:35.300Z,2.13
2018-06-30T15:33:03.775Z,2.40
2018-06-30T15:35:32.200Z,2.83
2018-06-30T15:38:00.620Z,2.80
2018-06-30T15:40:29.093Z,2.27
2018-06-30T15:42:57.543Z,2.40
2018-06-30T15:45:25.631Z,2.17
2018-06-30T15:47:53.720Z,2.37
2018-06-30T15:50:22.218Z,1.80
2018-06-30T15:52:50.609Z,2.10
2018-06-30T15:55:19.007Z,2.10
2018-06-30T15:57:47.435Z,2.23
2018-06-30T16:00:15.848Z,2.30
2018-06-30T16:02:44.243Z,1.83
2018-06-30T16:05:13.059Z,1.90
2018-06-30T16:07:41.453Z,1.70
2018-06-30T16:10:09.861Z,2.13
2018-06-30T16:12:38.243Z,2.77
2018-06-30T16:15:06.723Z,2.97
2018-06-30T16:17:35.300Z,2.10
2018-06-30T16:20:03.780Z,1.70
2018-06-30T16:22:32.187Z,2.30
2018-06-30T16:25:00.588Z,2.10
2018-06-30T16:27:29.008Z,2.20
2018-06-30T16:29:57.391Z,1.70
2018-06-30T16:32:25.809Z,2.13
2018-06-30T16:34:54.260Z,2.07
2018-06-30T16:37:22.670Z,2.50
2018-06-30T16:39:51.124Z,2.20
2018-06-30T16:42:19.526Z,1.77
2018-06-30T16:44:47.932Z,1.50
2018-06-30T16:47:16.380Z,1.83
2018-06-30T16:49:44.808Z,1.80
2018-06-30T16:52:13.286Z,1.70
2018-06-30T16:54:41.703Z,1.73
2018-06-30T16:57:10.079Z,1.83
2018-06-30T16:59:38.495Z,1.40
2018-06-30T17:02:06.959Z,1.70
2018-06-30T17:04:35.367Z,1.87
2018-06-30T17:07:03.795Z,1.77
2018-06-30T17:09:32.211Z,2.17
2018-06-30T17:12:00.633Z,1.70
2018-06-30T17:14:29.052Z,1.30
2018-06-30T17:16:57.513Z,1.50
2018-06-30T17:19:25.899Z,2.00
2018-06-30T17:21:54.283Z,1.30
2018-06-30T17:24:22.739Z,1.70
2018-06-30T17:26:51.199Z,1.60
2018-06-30T17:29:19.615Z,1.90
2018-06-30T17:31:48.027Z,1.40
2018-06-30T17:34:16.521Z,1.47
2018-06-30T17:36:44.967Z,1.70
2018-06-30T17:39:13.362Z,1.50
2018-06-30T17:41:41.839Z,1.60
2018-06-30T17:44:10.391Z,1.83
2018-06-30T17:46:39.136Z,1.50
2018-06-30T17:49:07.859Z,1.67
2018-06-30T17:51:36.327Z,1.77
2018-06-30T17:54:05.053Z,1.40
2018-06-30T17:56:33.448Z,1.70
2018-06-30T17:59:01.855Z,1.47
2018-06-30T18:01:30.285Z,1.30
2018-06-30T18:03:58.692Z,1.33
2018-06-30T18:06:27.092Z,1.53
2018-06-30T18:08:55.502Z,1.37
2018-06-30T18:11:23.959Z,1.17
2018-06-30T18:13:52.357Z,1.23
2018-06-30T18:16:20.871Z,1.30
2018-06-30T18:18:49.583Z,1.47
2018-06-30T18:21:18.046Z,1.50
2018-06-30T18:23:46.492Z,1.27
2018-06-30T18:26:14.956Z,1.77
2018-06-30T18:28:43.368Z,1.40
2018-06-30T18:31:11.751Z,1.60
2018-06-30T18:33:40.338Z,1.70
2018-06-30T18:36:08.471Z,1.50
2018-06-30T18:38:36.883Z,1.43
2018-06-30T18:41:05.447Z,1.40
2018-06-30T18:43:33.844Z,1.67
2018-06-30T18:46:02.291Z,1.47
2018-06-30T18:48:30.679Z,1.63
2018-06-30T18:50:59.212Z,1.67
2018-06-30T18:53:27.623Z,1.50
2018-06-30T18:55:56.072Z,1.80
2018-06-30T18:58:24.488Z,1.93
2018-06-30T19:00:52.920Z,2.20
2018-06-30T19:03:21.395Z,1.50
2018-06-30T19:05:49.820Z,1.47
2018-06-30T19:08:18.235Z,1.30
2018-06-30T19:10:46.714Z,1.50
2018-06-30T19:13:15.138Z,1.37
2018-06-30T19:15:43.606Z,1.47
2018-06-30T19:18:11.983Z,1.80
2018-06-30T19:20:40.395Z,1.80
2018-06-30T19:23:08.861Z,1.93
2018-06-30T19:25:37.279Z,1.60
2018-06-30T19:28:05.725Z,1.70
2018-06-30T19:30:34.131Z,1.80
2018-06-30T19:33:02.540Z,1.80
2018-06-30T19:35:30.956Z,1.73
2018-06-30T19:37:59.635Z,1.97
2018-06-30T19:40:28.019Z,1.40
2018-06-30T19:42:56.405Z,1.60
2018-06-30T19:45:24.811Z,1.90
2018-06-30T19:47:53.395Z,1.87
2018-06-30T19:50:21.912Z,1.20
2018-06-30T19:52:50.307Z,1.97
2018-06-30T19:55:18.728Z,1.30
2018-06-30T19:57:47.163Z,1.60
2018-06-30T20:00:15.576Z,1.80
2018-06-30T20:02:43.944Z,1.50
2018-06-30T20:05:12.347Z,1.40
2018-06-30T20:07:46.061Z,2.27
2018-06-30T20:10:14.676Z,1.43
2018-06-30T20:12:43.055Z,2.03
2018-06-30T20:15:11.474Z,1.70
2018-06-30T20:17:40.345Z,1.50
2018-06-30T20:20:10.233Z,1.80
2018-06-30T20:22:38.665Z,1.80
2018-06-30T20:25:07.108Z,2.10
2018-06-30T20:27:35.555Z,1.87
2018-06-30T20:30:04.048Z,2.47
2018-06-30T20:32:32.465Z,2.17
2018-06-30T20:35:00.890Z,1.80
2018-06-30T20:37:29.315Z,2.03
2018-06-30T20:39:57.719Z,1.93
2018-06-30T20:42:26.152Z,1.80
2018-06-30T20:44:54.579Z,2.30
2018-06-30T20:47:23.001Z,1.80
2018-06-30T20:49:51.442Z,1.50
2018-06-30T20:52:19.871Z,1.63
2018-06-30T20:54:48.580Z,1.87
2018-06-30T20:57:16.979Z,1.30
2018-06-30T20:59:45.359Z,1.60
2018-06-30T21:02:13.772Z,1.67
2018-06-30T21:04:42.219Z,1.47
2018-06-30T21:07:10.639Z,1.50
2018-06-30T21:09:39.033Z,1.67
2018-06-30T21:12:07.443Z,2.50
2018-06-30T21:14:35.872Z,1.43
2018-06-30T21:17:04.322Z,1.60
2018-06-30T21:19:32.760Z,1.73
2018-06-30T21:22:01.204Z,1.60
2018-06-30T21:24:29.583Z,2.00
2018-06-30T21:26:57.983Z,1.80
2018-06-30T21:29:26.367Z,1.83
2018-06-30T21:31:54.768Z,1.63
2018-06-30T21:34:23.187Z,1.77
2018-06-30T21:36:51.595Z,1.93
2018-06-30T21:39:19.996Z,1.70
2018-06-30T21:41:48.411Z,1.50
2018-06-30T21:44:16.889Z,1.57
2018-06-30T21:46:45.283Z,2.17
2018-06-30T21:49:13.660Z,1.80
2018-06-30T21:51:42.091Z,1.83
2018-06-30T21:54:10.803Z,1.60
2018-06-30T21:56:39.291Z,1.77
2018-06-30T21:59:07.684Z,1.77
2018-06-30T22:01:36.151Z,1.80
2018-06-30T22:04:04.598Z,2.10
2018-06-30T22:06:32.995Z,2.37
2018-06-30T22:09:01.387Z,1.80
2018-06-30T22:11:29.861Z,1.60
2018-06-30T22:13:58.225Z,2.30
2018-06-30T22:16:26.623Z,1.93
2018-06-30T22:18:55.023Z,2.00
2018-06-30T22:21:23.421Z,1.87
2018-06-30T22:23:51.843Z,1.80
2018-06-30T22:26:20.261Z,1.50
2018-06-30T22:28:48.683Z,1.40
2018-06-30T22:31:17.068Z,1.70
2018-06-30T22:33:45.472Z,1.80
2018-06-30T22:36:14.234Z,1.63
2018-06-30T22:38:42.651Z,1.60
2018-06-30T22:41:11.037Z,1.80
2018-06-30T22:43:39.444Z,1.40
2018-06-30T22:46:07.939Z,1.40
2018-06-30T22:48:36.335Z,1.10
2018-06-30T22:51:04.726Z,1.60
2018-06-30T22:53:33.144Z,1.83
2018-06-30T22:56:01.553Z,1.70
2018-06-30T22:58:29.960Z,1.80
2018-06-30T23:00:58.363Z,1.30
2018-06-30T23:03:26.811Z,1.47
2018-06-30T23:05:55.193Z,1.67
2018-06-30T23:08:23.589Z,1.33
2018-06-30T23:10:51.980Z,1.23
2018-06-30T23:13:20.384Z,1.30
2018-06-30T23:15:48.810Z,1.27
2018-06-30T23:18:17.207Z,1.33
2018-06-30T23:20:45.633Z,1.83
2018-06-30T23:23:14.036Z,1.17
2018-06-30T23:25:42.484Z,1.67
2018-06-30T23:28:10.915Z,1.77
2018-06-30T23:30:39.295Z,1.37
2018-06-30T23:33:07.703Z,1.70
2018-06-30T23:35:36.125Z,1.50
2018-06-30T23:38:04.699Z,1.60
2018-06-30T23:40:33.183Z,1.50
2018-06-30T23:43:01.596Z,1.70
2018-06-30T23:45:29.992Z,1.90
2018-06-30T23:47:58.391Z,1.60
2018-06-30T23:50:26.803Z,1.73
2018-06-30T23:52:55.230Z,1.80
2018-06-30T23:55:23.729Z,1.57
2018-06-30T23:57:52.251Z,1.60
